sensor_id;sensor_type;location;lat;lon;timestamp;P1;durP1;ratioP1;P2;durP2;ratioP2
37847;SDS011;23688;33.130;-117.188;2024-01-10T00:00:03;6.45;;;1.20;;
37847;SDS011;23688;33.130;-117.188;2024-01-10T00:02:30;3.95;;;1.00;;
37847;SDS011;23688;33.130;-117.188;2024-01-10T00:04:56;2.25;;;0.80;;
37847;SDS011;23688;33.130;-117.188;2024-01-10T00:07:22;3.08;;;0.90;;
37847;SDS011;23688;33.130;-117.188;2024-01-10T00:09:51;2.88;;;0.68;;
37847;SDS011;23688;33.130;-117.188;2024-01-10T00:12:17;4.60;;;1.13;;
37847;SDS011;23688;33.130;-117.188;2024-01-10T00:14:44;3.45;;;1.05;;
37847;SDS011;23688;33.130;-117.188;2024-01-10T00:17:10;1.67;;;0.75;;
37847;SDS011;23688;33.130;-117.188;2024-01-10T00:19:37;4.28;;;0.90;;
37847;SDS011;23688;33.130;-117.188;2024-01-10T00:22:03;5.70;;;0.70;;
37847;SDS011;23688;33.130;-117.188;2024-01-10T00:24:29;6.40;;;0.80;;
37847;SDS011;23688;33.130;-117.188;2024-01-10T00:26:56;6.07;;;1.60;;
37847;SDS011;23688;33.130;-117.188;2024-01-10T00:31:50;2.97;;;1.00;;
37847;SDS011;23688;33.130;-117.188;2024-01-10T00:34:18;2.08;;;1.15;;
37847;SDS011;23688;33.130;-117.188;2024-01-10T00:36:44;5.60;;;1.38;;
37847;SDS011;23688;33.130;-117.188;2024-01-10T00:39:10;7.72;;;1.73;;
37847;SDS011;23688;33.130;-117.188;2024-01-10T00:41:36;3.13;;;1.42;;
37847;SDS011;23688;33.130;-117.188;2024-01-10T00:44:03;5.05;;;1.20;;
37847;SDS011;23688;33.130;-117.188;2024-01-10T00:46:29;8.38;;;1.38;;
37847;SDS011;23688;33.130;-117.188;2024-01-10T00:48:55;6.60;;;1.52;;
37847;SDS011;23688;33.130;-117.188;2024-01-10T00:51:22;5.53;;;1.30;;
37847;SDS011;23688;33.130;-117.188;2024-01-10T00:53:48;2.60;;;1.20;;
37847;SDS011;23688;33.130;-117.188;2024-01-10T00:56:14;5.55;;;1.80;;
37847;SDS011;23688;33.130;-117.188;2024-01-10T00:58:40;4.75;;;1.52;;
37847;SDS011;23688;33.130;-117.188;2024-01-10T01:01:07;5.00;;;1.55;;
37847;SDS011;23688;33.130;-117.188;2024-01-10T01:03:33;3.35;;;1.35;;
37847;SDS011;23688;33.130;-117.188;2024-01-10T01:06:01;2.83;;;1.00;;
37847;SDS011;23688;33.130;-117.188;2024-01-10T01:08:27;4.88;;;1.30;;
37847;SDS011;23688;33.130;-117.188;2024-01-10T01:10:54;2.45;;;1.17;;
37847;SDS011;23688;33.130;-117.188;2024-01-10T01:13:20;4.60;;;1.05;;
37847;SDS011;23688;33.130;-117.188;2024-01-10T01:15:46;6.82;;;1.38;;
37847;SDS011;23688;33.130;-117.188;2024-01-10T01:18:13;4.05;;;1.02;;
37847;SDS011;23688;33.130;-117.188;2024-01-10T01:20:40;1.65;;;0.85;;
37847;SDS011;23688;33.130;-117.188;2024-01-10T01:23:06;2.80;;;1.02;;
37847;SDS011;23688;33.130;-117.188;2024-01-10T01:25:32;6.22;;;1.42;;
37847;SDS011;23688;33.130;-117.188;2024-01-10T01:27:59;6.20;;;1.23;;
37847;SDS011;23688;33.130;-117.188;2024-01-10T01:30:25;3.35;;;1.10;;
37847;SDS011;23688;33.130;-117.188;2024-01-10T01:32:51;3.17;;;1.08;;
37847;SDS011;23688;33.130;-117.188;2024-01-10T01:35:18;2.55;;;1.55;;
37847;SDS011;23688;33.130;-117.188;2024-01-10T01:37:47;3.58;;;2.90;;
37847;SDS011;23688;33.130;-117.188;2024-01-10T01:40:13;5.72;;;3.17;;
37847;SDS011;23688;33.130;-117.188;2024-01-10T01:42:40;6.70;;;2.75;;
37847;SDS011;23688;33.130;-117.188;2024-01-10T01:45:06;5.38;;;2.72;;
37847;SDS011;23688;33.130;-117.188;2024-01-10T01:47:33;6.32;;;2.60;;
37847;SDS011;23688;33.130;-117.188;2024-01-10T01:49:59;5.85;;;4.05;;
37847;SDS011;23688;33.130;-117.188;2024-01-10T01:52:26;11.80;;;3.88;;
37847;SDS011;23688;33.130;-117.188;2024-01-10T01:54:54;6.47;;;4.38;;
37847;SDS011;23688;33.130;-117.188;2024-01-10T01:57:21;10.75;;;4.07;;
37847;SDS011;23688;33.130;-117.188;2024-01-10T01:59:47;9.65;;;4.25;;
37847;SDS011;23688;33.130;-117.188;2024-01-10T02:02:14;4.65;;;2.97;;
37847;SDS011;23688;33.130;-117.188;2024-01-10T02:04:45;5.55;;;3.13;;
37847;SDS011;23688;33.130;-117.188;2024-01-10T02:07:12;8.75;;;4.82;;
37847;SDS011;23688;33.130;-117.188;2024-01-10T02:09:38;8.25;;;4.10;;
37847;SDS011;23688;33.130;-117.188;2024-01-10T02:12:05;6.13;;;3.65;;
37847;SDS011;23688;33.130;-117.188;2024-01-10T02:14:31;8.63;;;3.38;;
37847;SDS011;23688;33.130;-117.188;2024-01-10T02:16:57;14.52;;;2.95;;
37847;SDS011;23688;33.130;-117.188;2024-01-10T02:19:24;9.20;;;3.05;;
37847;SDS011;23688;33.130;-117.188;2024-01-10T02:21:52;8.25;;;3.85;;
37847;SDS011;23688;33.130;-117.188;2024-01-10T02:24:21;17.48;;;7.10;;
37847;SDS011;23688;33.130;-117.188;2024-01-10T02:26:47;8.85;;;5.10;;
37847;SDS011;23688;33.130;-117.188;2024-01-10T02:29:15;7.10;;;3.75;;
37847;SDS011;23688;33.130;-117.188;2024-01-10T02:31:41;7.78;;;3.90;;
37847;SDS011;23688;33.130;-117.188;2024-01-10T02:34:08;13.48;;;5.00;;
37847;SDS011;23688;33.130;-117.188;2024-01-10T02:36:34;5.32;;;2.53;;
37847;SDS011;23688;33.130;-117.188;2024-01-10T02:39:00;6.25;;;2.50;;
37847;SDS011;23688;33.130;-117.188;2024-01-10T02:41:27;14.32;;;2.30;;
37847;SDS011;23688;33.130;-117.188;2024-01-10T02:43:53;8.63;;;3.20;;
37847;SDS011;23688;33.130;-117.188;2024-01-10T02:46:24;5.80;;;3.20;;
37847;SDS011;23688;33.130;-117.188;2024-01-10T02:48:53;4.85;;;2.08;;
37847;SDS011;23688;33.130;-117.188;2024-01-10T02:51:21;4.28;;;1.80;;
37847;SDS011;23688;33.130;-117.188;2024-01-10T02:53:49;3.67;;;1.48;;
37847;SDS011;23688;33.130;-117.188;2024-01-10T02:56:16;9.07;;;1.75;;
37847;SDS011;23688;33.130;-117.188;2024-01-10T02:58:42;5.55;;;2.35;;
37847;SDS011;23688;33.130;-117.188;2024-01-10T03:01:08;5.03;;;2.58;;
37847;SDS011;23688;33.130;-117.188;2024-01-10T03:03:35;5.72;;;2.30;;
37847;SDS011;23688;33.130;-117.188;2024-01-10T03:06:01;7.60;;;3.20;;
37847;SDS011;23688;33.130;-117.188;2024-01-10T03:08:28;6.60;;;3.33;;
37847;SDS011;23688;33.130;-117.188;2024-01-10T03:10:54;4.43;;;2.95;;
37847;SDS011;23688;33.130;-117.188;2024-01-10T03:13:20;6.10;;;2.63;;
37847;SDS011;23688;33.130;-117.188;2024-01-10T03:15:47;3.95;;;2.40;;
37847;SDS011;23688;33.130;-117.188;2024-01-10T03:18:13;4.72;;;2.30;;
37847;SDS011;23688;33.130;-117.188;2024-01-10T03:20:40;4.75;;;2.42;;
37847;SDS011;23688;33.130;-117.188;2024-01-10T03:23:06;11.35;;;2.13;;
37847;SDS011;23688;33.130;-117.188;2024-01-10T03:25:32;3.88;;;2.10;;
37847;SDS011;23688;33.130;-117.188;2024-01-10T03:27:59;4.95;;;2.10;;
37847;SDS011;23688;33.130;-117.188;2024-01-10T03:30:25;7.07;;;2.42;;
37847;SDS011;23688;33.130;-117.188;2024-01-10T03:32:51;9.38;;;2.42;;
37847;SDS011;23688;33.130;-117.188;2024-01-10T03:35:17;10.80;;;2.83;;
37847;SDS011;23688;33.130;-117.188;2024-01-10T03:37:44;6.90;;;2.20;;
37847;SDS011;23688;33.130;-117.188;2024-01-10T03:40:10;4.43;;;2.22;;
37847;SDS011;23688;33.130;-117.188;2024-01-10T03:42:37;5.25;;;2.50;;
37847;SDS011;23688;33.130;-117.188;2024-01-10T03:45:04;5.78;;;2.58;;
37847;SDS011;23688;33.130;-117.188;2024-01-10T03:47:31;10.02;;;4.28;;
37847;SDS011;23688;33.130;-117.188;2024-01-10T03:49:57;5.75;;;3.83;;
37847;SDS011;23688;33.130;-117.188;2024-01-10T03:52:23;4.30;;;3.15;;
37847;SDS011;23688;33.130;-117.188;2024-01-10T03:54:51;7.63;;;3.70;;
37847;SDS011;23688;33.130;-117.188;2024-01-10T03:57:17;5.22;;;2.58;;
37847;SDS011;23688;33.130;-117.188;2024-01-10T03:59:44;8.00;;;3.45;;
37847;SDS011;23688;33.130;-117.188;2024-01-10T04:02:11;6.97;;;3.40;;
37847;SDS011;23688;33.130;-117.188;2024-01-10T04:04:37;9.50;;;4.18;;
37847;SDS011;23688;33.130;-117.188;2024-01-10T04:07:04;11.25;;;4.45;;
37847;SDS011;23688;33.130;-117.188;2024-01-10T04:09:30;8.95;;;3.78;;
37847;SDS011;23688;33.130;-117.188;2024-01-10T04:11:56;8.60;;;3.47;;
37847;SDS011;23688;33.130;-117.188;2024-01-10T04:14:23;7.20;;;3.50;;
37847;SDS011;23688;33.130;-117.188;2024-01-10T04:16:49;9.30;;;3.97;;
37847;SDS011;23688;33.130;-117.188;2024-01-10T04:19:17;9.68;;;4.45;;
37847;SDS011;23688;33.130;-117.188;2024-01-10T04:21:44;7.95;;;2.78;;
37847;SDS011;23688;33.130;-117.188;2024-01-10T04:24:10;6.32;;;2.63;;
37847;SDS011;23688;33.130;-117.188;2024-01-10T04:26:36;8.40;;;2.72;;
37847;SDS011;23688;33.130;-117.188;2024-01-10T04:29:02;7.07;;;3.13;;
37847;SDS011;23688;33.130;-117.188;2024-01-10T04:31:29;3.90;;;2.90;;
37847;SDS011;23688;33.130;-117.188;2024-01-10T04:33:55;5.93;;;2.42;;
37847;SDS011;23688;33.130;-117.188;2024-01-10T04:36:21;4.18;;;2.92;;
37847;SDS011;23688;33.130;-117.188;2024-01-10T04:38:48;7.28;;;3.55;;
37847;SDS011;23688;33.130;-117.188;2024-01-10T04:41:14;8.52;;;4.55;;
37847;SDS011;23688;33.130;-117.188;2024-01-10T04:43:40;8.80;;;4.68;;
37847;SDS011;23688;33.130;-117.188;2024-01-10T04:46:06;10.07;;;5.25;;
37847;SDS011;23688;33.130;-117.188;2024-01-10T04:48:36;10.20;;;4.85;;
37847;SDS011;23688;33.130;-117.188;2024-01-10T04:51:03;12.55;;;5.97;;
37847;SDS011;23688;33.130;-117.188;2024-01-10T04:53:29;19.75;;;6.60;;
37847;SDS011;23688;33.130;-117.188;2024-01-10T04:55:55;9.57;;;5.55;;
37847;SDS011;23688;33.130;-117.188;2024-01-10T04:58:24;13.77;;;6.13;;
37847;SDS011;23688;33.130;-117.188;2024-01-10T05:00:50;11.77;;;5.97;;
37847;SDS011;23688;33.130;-117.188;2024-01-10T05:03:17;8.45;;;4.90;;
37847;SDS011;23688;33.130;-117.188;2024-01-10T05:05:43;10.80;;;5.32;;
37847;SDS011;23688;33.130;-117.188;2024-01-10T05:08:09;12.27;;;5.82;;
37847;SDS011;23688;33.130;-117.188;2024-01-10T05:10:35;12.07;;;6.28;;
37847;SDS011;23688;33.130;-117.188;2024-01-10T05:13:02;11.95;;;5.85;;
37847;SDS011;23688;33.130;-117.188;2024-01-10T05:15:28;8.30;;;5.78;;
37847;SDS011;23688;33.130;-117.188;2024-01-10T05:17:54;13.65;;;6.28;;
37847;SDS011;23688;33.130;-117.188;2024-01-10T05:20:21;11.18;;;6.57;;
37847;SDS011;23688;33.130;-117.188;2024-01-10T05:22:48;15.05;;;7.28;;
37847;SDS011;23688;33.130;-117.188;2024-01-10T05:25:14;22.33;;;7.95;;
37847;SDS011;23688;33.130;-117.188;2024-01-10T05:27:43;14.20;;;7.75;;
37847;SDS011;23688;33.130;-117.188;2024-01-10T05:30:10;13.45;;;7.22;;
37847;SDS011;23688;33.130;-117.188;2024-01-10T05:32:38;15.95;;;7.60;;
37847;SDS011;23688;33.130;-117.188;2024-01-10T05:35:04;16.50;;;7.18;;
37847;SDS011;23688;33.130;-117.188;2024-01-10T05:37:32;13.25;;;6.75;;
37847;SDS011;23688;33.130;-117.188;2024-01-10T05:39:59;14.90;;;7.53;;
37847;SDS011;23688;33.130;-117.188;2024-01-10T05:42:26;14.75;;;7.65;;
37847;SDS011;23688;33.130;-117.188;2024-01-10T05:44:52;12.32;;;8.43;;
37847;SDS011;23688;33.130;-117.188;2024-01-10T05:47:18;14.30;;;7.65;;
37847;SDS011;23688;33.130;-117.188;2024-01-10T05:49:45;16.75;;;7.40;;
37847;SDS011;23688;33.130;-117.188;2024-01-10T05:52:11;15.63;;;7.30;;
37847;SDS011;23688;33.130;-117.188;2024-01-10T05:54:38;14.32;;;7.03;;
37847;SDS011;23688;33.130;-117.188;2024-01-10T05:57:04;18.45;;;8.38;;
37847;SDS011;23688;33.130;-117.188;2024-01-10T05:59:31;14.20;;;7.60;;
37847;SDS011;23688;33.130;-117.188;2024-01-10T06:01:57;14.52;;;8.35;;
37847;SDS011;23688;33.130;-117.188;2024-01-10T06:04:27;13.23;;;7.72;;
37847;SDS011;23688;33.130;-117.188;2024-01-10T06:06:59;19.98;;;7.78;;
37847;SDS011;23688;33.130;-117.188;2024-01-10T06:09:26;13.40;;;7.35;;
37847;SDS011;23688;33.130;-117.188;2024-01-10T06:11:53;12.80;;;7.80;;
37847;SDS011;23688;33.130;-117.188;2024-01-10T06:14:19;20.55;;;9.38;;
37847;SDS011;23688;33.130;-117.188;2024-01-10T06:16:45;15.05;;;7.75;;
37847;SDS011;23688;33.130;-117.188;2024-01-10T06:19:12;12.98;;;7.35;;
37847;SDS011;23688;33.130;-117.188;2024-01-10T06:21:38;18.85;;;7.00;;
37847;SDS011;23688;33.130;-117.188;2024-01-10T06:24:04;15.35;;;7.32;;
37847;SDS011;23688;33.130;-117.188;2024-01-10T06:26:31;13.88;;;7.25;;
37847;SDS011;23688;33.130;-117.188;2024-01-10T06:28:57;12.13;;;6.88;;
37847;SDS011;23688;33.130;-117.188;2024-01-10T06:31:23;13.98;;;7.13;;
37847;SDS011;23688;33.130;-117.188;2024-01-10T06:33:50;17.27;;;6.63;;
37847;SDS011;23688;33.130;-117.188;2024-01-10T06:36:16;14.55;;;6.57;;
37847;SDS011;23688;33.130;-117.188;2024-01-10T06:38:42;13.77;;;6.75;;
37847;SDS011;23688;33.130;-117.188;2024-01-10T06:41:09;14.52;;;6.32;;
37847;SDS011;23688;33.130;-117.188;2024-01-10T06:43:36;11.30;;;5.30;;
37847;SDS011;23688;33.130;-117.188;2024-01-10T06:46:03;15.55;;;5.32;;
37847;SDS011;23688;33.130;-117.188;2024-01-10T06:48:29;9.50;;;5.00;;
37847;SDS011;23688;33.130;-117.188;2024-01-10T06:50:57;9.68;;;5.22;;
37847;SDS011;23688;33.130;-117.188;2024-01-10T06:53:23;15.27;;;5.15;;
37847;SDS011;23688;33.130;-117.188;2024-01-10T06:55:49;7.40;;;4.60;;
37847;SDS011;23688;33.130;-117.188;2024-01-10T06:58:16;12.23;;;4.90;;
37847;SDS011;23688;33.130;-117.188;2024-01-10T07:00:42;11.85;;;5.38;;
37847;SDS011;23688;33.130;-117.188;2024-01-10T07:03:08;12.40;;;4.93;;
37847;SDS011;23688;33.130;-117.188;2024-01-10T07:05:35;11.77;;;4.68;;
37847;SDS011;23688;33.130;-117.188;2024-01-10T07:08:01;8.13;;;4.88;;
37847;SDS011;23688;33.130;-117.188;2024-01-10T07:10:28;14.02;;;4.65;;
37847;SDS011;23688;33.130;-117.188;2024-01-10T07:12:55;11.73;;;4.90;;
37847;SDS011;23688;33.130;-117.188;2024-01-10T07:15:21;10.02;;;4.78;;
37847;SDS011;23688;33.130;-117.188;2024-01-10T07:17:48;10.68;;;4.93;;
37847;SDS011;23688;33.130;-117.188;2024-01-10T07:20:15;7.78;;;4.93;;
37847;SDS011;23688;33.130;-117.188;2024-01-10T07:22:41;6.55;;;4.82;;
37847;SDS011;23688;33.130;-117.188;2024-01-10T07:25:09;9.68;;;4.47;;
37847;SDS011;23688;33.130;-117.188;2024-01-10T07:27:45;8.25;;;4.15;;
37847;SDS011;23688;33.130;-117.188;2024-01-10T07:30:11;9.50;;;5.20;;
37847;SDS011;23688;33.130;-117.188;2024-01-10T07:32:43;11.43;;;5.55;;
37847;SDS011;23688;33.130;-117.188;2024-01-10T07:35:11;13.75;;;5.10;;
37847;SDS011;23688;33.130;-117.188;2024-01-10T07:37:41;11.63;;;4.50;;
37847;SDS011;23688;33.130;-117.188;2024-01-10T07:40:08;8.05;;;4.80;;
37847;SDS011;23688;33.130;-117.188;2024-01-10T07:42:38;11.10;;;5.10;;
37847;SDS011;23688;33.130;-117.188;2024-01-10T07:45:05;10.25;;;4.90;;
37847;SDS011;23688;33.130;-117.188;2024-01-10T07:50:06;16.90;;;5.88;;
37847;SDS011;23688;33.130;-117.188;2024-01-10T07:52:33;8.15;;;4.78;;
37847;SDS011;23688;33.130;-117.188;2024-01-10T07:55:00;16.75;;;5.15;;
37847;SDS011;23688;33.130;-117.188;2024-01-10T07:57:27;7.57;;;4.85;;
37847;SDS011;23688;33.130;-117.188;2024-01-10T07:59:53;7.25;;;4.75;;
37847;SDS011;23688;33.130;-117.188;2024-01-10T08:02:20;15.73;;;4.75;;
37847;SDS011;23688;33.130;-117.188;2024-01-10T08:04:46;9.57;;;4.32;;
37847;SDS011;23688;33.130;-117.188;2024-01-10T08:07:13;8.20;;;3.80;;
37847;SDS011;23688;33.130;-117.188;2024-01-10T08:09:39;9.38;;;4.00;;
37847;SDS011;23688;33.130;-117.188;2024-01-10T08:12:06;9.05;;;4.70;;
37847;SDS011;23688;33.130;-117.188;2024-01-10T08:14:32;12.05;;;4.22;;
37847;SDS011;23688;33.130;-117.188;2024-01-10T08:16:59;8.00;;;4.55;;
37847;SDS011;23688;33.130;-117.188;2024-01-10T08:19:28;10.45;;;4.63;;
37847;SDS011;23688;33.130;-117.188;2024-01-10T08:21:54;6.60;;;4.32;;
37847;SDS011;23688;33.130;-117.188;2024-01-10T08:24:22;10.02;;;4.18;;
37847;SDS011;23688;33.130;-117.188;2024-01-10T08:26:48;9.55;;;4.22;;
37847;SDS011;23688;33.130;-117.188;2024-01-10T08:29:17;7.45;;;4.20;;
37847;SDS011;23688;33.130;-117.188;2024-01-10T08:31:44;8.55;;;4.35;;
37847;SDS011;23688;33.130;-117.188;2024-01-10T08:34:11;6.80;;;4.32;;
37847;SDS011;23688;33.130;-117.188;2024-01-10T08:36:37;11.52;;;4.05;;
37847;SDS011;23688;33.130;-117.188;2024-01-10T08:39:03;7.03;;;3.85;;
37847;SDS011;23688;33.130;-117.188;2024-01-10T08:41:32;8.85;;;4.15;;
37847;SDS011;23688;33.130;-117.188;2024-01-10T08:44:01;6.55;;;4.20;;
37847;SDS011;23688;33.130;-117.188;2024-01-10T08:46:27;10.40;;;4.10;;
37847;SDS011;23688;33.130;-117.188;2024-01-10T08:48:54;7.55;;;4.22;;
37847;SDS011;23688;33.130;-117.188;2024-01-10T08:51:20;13.90;;;4.43;;
37847;SDS011;23688;33.130;-117.188;2024-01-10T08:53:46;13.25;;;4.63;;
37847;SDS011;23688;33.130;-117.188;2024-01-10T08:56:13;10.02;;;5.10;;
37847;SDS011;23688;33.130;-117.188;2024-01-10T08:58:43;9.60;;;4.10;;
37847;SDS011;23688;33.130;-117.188;2024-01-10T09:01:10;10.27;;;4.07;;
37847;SDS011;23688;33.130;-117.188;2024-01-10T09:03:36;7.78;;;4.32;;
37847;SDS011;23688;33.130;-117.188;2024-01-10T09:06:03;9.07;;;4.15;;
37847;SDS011;23688;33.130;-117.188;2024-01-10T09:08:33;5.93;;;3.50;;
37847;SDS011;23688;33.130;-117.188;2024-01-10T09:11:00;6.13;;;3.63;;
37847;SDS011;23688;33.130;-117.188;2024-01-10T09:13:26;9.43;;;4.20;;
37847;SDS011;23688;33.130;-117.188;2024-01-10T09:15:52;19.48;;;5.63;;
37847;SDS011;23688;33.130;-117.188;2024-01-10T09:18:19;10.07;;;4.57;;
37847;SDS011;23688;33.130;-117.188;2024-01-10T09:20:45;7.80;;;4.00;;
37847;SDS011;23688;33.130;-117.188;2024-01-10T09:23:13;6.95;;;3.58;;
37847;SDS011;23688;33.130;-117.188;2024-01-10T09:25:40;9.20;;;3.70;;
37847;SDS011;23688;33.130;-117.188;2024-01-10T09:28:07;15.80;;;4.18;;
37847;SDS011;23688;33.130;-117.188;2024-01-10T09:30:33;8.98;;;4.10;;
37847;SDS011;23688;33.130;-117.188;2024-01-10T09:32:59;9.57;;;3.83;;
37847;SDS011;23688;33.130;-117.188;2024-01-10T09:35:26;12.63;;;4.22;;
37847;SDS011;23688;33.130;-117.188;2024-01-10T09:37:52;10.63;;;4.68;;
37847;SDS011;23688;33.130;-117.188;2024-01-10T09:40:22;7.82;;;4.40;;
37847;SDS011;23688;33.130;-117.188;2024-01-10T09:42:52;8.82;;;5.00;;
37847;SDS011;23688;33.130;-117.188;2024-01-10T09:45:22;6.70;;;4.53;;
37847;SDS011;23688;33.130;-117.188;2024-01-10T09:47:55;9.02;;;3.78;;
37847;SDS011;23688;33.130;-117.188;2024-01-10T09:50:26;8.48;;;4.05;;
37847;SDS011;23688;33.130;-117.188;2024-01-10T09:53:05;13.27;;;4.90;;
37847;SDS011;23688;33.130;-117.188;2024-01-10T09:55:35;8.82;;;4.70;;
37847;SDS011;23688;33.130;-117.188;2024-01-10T09:58:06;13.93;;;4.77;;
37847;SDS011;23688;33.130;-117.188;2024-01-10T10:00:34;8.45;;;3.50;;
37847;SDS011;23688;33.130;-117.188;2024-01-10T10:03:06;14.48;;;4.53;;
37847;SDS011;23688;33.130;-117.188;2024-01-10T10:05:37;11.18;;;4.53;;
37847;SDS011;23688;33.130;-117.188;2024-01-10T10:08:07;7.55;;;4.32;;
37847;SDS011;23688;33.130;-117.188;2024-01-10T10:10:36;10.98;;;4.35;;
37847;SDS011;23688;33.130;-117.188;2024-01-10T10:13:08;9.32;;;3.63;;
37847;SDS011;23688;33.130;-117.188;2024-01-10T10:15:39;13.27;;;3.92;;
37847;SDS011;23688;33.130;-117.188;2024-01-10T10:18:05;9.68;;;3.60;;
37847;SDS011;23688;33.130;-117.188;2024-01-10T10:20:31;10.98;;;4.22;;
37847;SDS011;23688;33.130;-117.188;2024-01-10T10:23:07;5.70;;;3.33;;
37847;SDS011;23688;33.130;-117.188;2024-01-10T10:25:43;8.75;;;3.53;;
37847;SDS011;23688;33.130;-117.188;2024-01-10T10:28:10;15.00;;;3.42;;
37847;SDS011;23688;33.130;-117.188;2024-01-10T10:30:37;9.15;;;3.33;;
37847;SDS011;23688;33.130;-117.188;2024-01-10T10:33:04;9.57;;;2.95;;
37847;SDS011;23688;33.130;-117.188;2024-01-10T10:35:33;5.75;;;2.63;;
37847;SDS011;23688;33.130;-117.188;2024-01-10T10:38:00;8.18;;;2.92;;
37847;SDS011;23688;33.130;-117.188;2024-01-10T10:40:26;6.00;;;3.00;;
37847;SDS011;23688;33.130;-117.188;2024-01-10T10:42:56;9.52;;;3.13;;
37847;SDS011;23688;33.130;-117.188;2024-01-10T10:45:23;6.30;;;2.58;;
37847;SDS011;23688;33.130;-117.188;2024-01-10T10:47:58;10.82;;;3.75;;
37847;SDS011;23688;33.130;-117.188;2024-01-10T10:50:27;12.70;;;3.38;;
37847;SDS011;23688;33.130;-117.188;2024-01-10T10:52:58;9.82;;;3.17;;
37847;SDS011;23688;33.130;-117.188;2024-01-10T10:55:26;7.15;;;3.78;;
37847;SDS011;23688;33.130;-117.188;2024-01-10T10:57:53;7.30;;;2.65;;
37847;SDS011;23688;33.130;-117.188;2024-01-10T11:00:21;8.32;;;2.63;;
37847;SDS011;23688;33.130;-117.188;2024-01-10T11:02:55;8.32;;;2.42;;
37847;SDS011;23688;33.130;-117.188;2024-01-10T11:05:25;8.73;;;2.65;;
37847;SDS011;23688;33.130;-117.188;2024-01-10T11:07:53;6.10;;;2.85;;
37847;SDS011;23688;33.130;-117.188;2024-01-10T11:10:27;8.73;;;2.72;;
37847;SDS011;23688;33.130;-117.188;2024-01-10T11:23:55;4.90;;;2.78;;
37847;SDS011;23688;33.130;-117.188;2024-01-10T11:26:25;3.40;;;2.20;;
37847;SDS011;23688;33.130;-117.188;2024-01-10T11:28:51;4.57;;;2.45;;
37847;SDS011;23688;33.130;-117.188;2024-01-10T11:31:26;6.53;;;2.85;;
37847;SDS011;23688;33.130;-117.188;2024-01-10T11:34:01;3.35;;;2.22;;
37847;SDS011;23688;33.130;-117.188;2024-01-10T11:36:28;5.53;;;2.45;;
37847;SDS011;23688;33.130;-117.188;2024-01-10T11:38:57;7.47;;;2.70;;
37847;SDS011;23688;33.130;-117.188;2024-01-10T11:46:40;5.97;;;3.00;;
37847;SDS011;23688;33.130;-117.188;2024-01-10T11:49:08;6.47;;;2.25;;
37847;SDS011;23688;33.130;-117.188;2024-01-10T11:51:37;7.25;;;2.78;;
37847;SDS011;23688;33.130;-117.188;2024-01-10T11:54:04;9.15;;;2.80;;
37847;SDS011;23688;33.130;-117.188;2024-01-10T11:56:43;7.88;;;2.97;;
37847;SDS011;23688;33.130;-117.188;2024-01-10T11:59:11;5.63;;;2.83;;
37847;SDS011;23688;33.130;-117.188;2024-01-10T12:01:42;8.77;;;2.65;;
37847;SDS011;23688;33.130;-117.188;2024-01-10T12:04:08;6.15;;;3.03;;
37847;SDS011;23688;33.130;-117.188;2024-01-10T12:06:35;6.90;;;2.90;;
37847;SDS011;23688;33.130;-117.188;2024-01-10T12:09:02;6.15;;;2.65;;
37847;SDS011;23688;33.130;-117.188;2024-01-10T12:11:40;4.53;;;2.20;;
37847;SDS011;23688;33.130;-117.188;2024-01-10T12:14:10;8.68;;;2.70;;
37847;SDS011;23688;33.130;-117.188;2024-01-10T12:16:37;3.60;;;2.25;;
37847;SDS011;23688;33.130;-117.188;2024-01-10T12:19:03;6.38;;;2.80;;
37847;SDS011;23688;33.130;-117.188;2024-01-10T12:21:30;3.58;;;2.50;;
37847;SDS011;23688;33.130;-117.188;2024-01-10T12:23:57;4.15;;;2.00;;
37847;SDS011;23688;33.130;-117.188;2024-01-10T12:26:23;7.03;;;2.08;;
37847;SDS011;23688;33.130;-117.188;2024-01-10T12:28:56;4.20;;;2.33;;
37847;SDS011;23688;33.130;-117.188;2024-01-10T12:31:24;11.35;;;2.45;;
37847;SDS011;23688;33.130;-117.188;2024-01-10T12:33:57;5.97;;;2.45;;
37847;SDS011;23688;33.130;-117.188;2024-01-10T12:36:24;6.07;;;2.08;;
37847;SDS011;23688;33.130;-117.188;2024-01-10T12:38:51;7.80;;;2.33;;
37847;SDS011;23688;33.130;-117.188;2024-01-10T12:41:17;6.53;;;2.38;;
37847;SDS011;23688;33.130;-117.188;2024-01-10T12:43:54;6.03;;;2.58;;
37847;SDS011;23688;33.130;-117.188;2024-01-10T12:46:22;8.70;;;2.17;;
37847;SDS011;23688;33.130;-117.188;2024-01-10T12:49:02;5.55;;;2.45;;
37847;SDS011;23688;33.130;-117.188;2024-01-10T12:51:32;6.25;;;3.03;;
37847;SDS011;23688;33.130;-117.188;2024-01-10T12:54:01;7.10;;;2.45;;
37847;SDS011;23688;33.130;-117.188;2024-01-10T12:56:32;6.10;;;2.50;;
37847;SDS011;23688;33.130;-117.188;2024-01-10T12:58:59;13.25;;;4.03;;
37847;SDS011;23688;33.130;-117.188;2024-01-10T13:01:26;5.32;;;2.15;;
37847;SDS011;23688;33.130;-117.188;2024-01-10T13:03:52;3.50;;;2.22;;
37847;SDS011;23688;33.130;-117.188;2024-01-10T13:06:18;5.15;;;2.28;;
37847;SDS011;23688;33.130;-117.188;2024-01-10T13:08:48;3.92;;;2.60;;
37847;SDS011;23688;33.130;-117.188;2024-01-10T13:11:14;6.55;;;2.03;;
37847;SDS011;23688;33.130;-117.188;2024-01-10T13:13:41;5.22;;;2.30;;
37847;SDS011;23688;33.130;-117.188;2024-01-10T13:16:11;4.15;;;2.17;;
37847;SDS011;23688;33.130;-117.188;2024-01-10T13:18:38;4.40;;;2.15;;
37847;SDS011;23688;33.130;-117.188;2024-01-10T13:21:05;5.80;;;3.47;;
37847;SDS011;23688;33.130;-117.188;2024-01-10T13:23:33;5.55;;;2.40;;
37847;SDS011;23688;33.130;-117.188;2024-01-10T13:26:00;5.40;;;2.15;;
37847;SDS011;23688;33.130;-117.188;2024-01-10T13:28:28;3.90;;;2.45;;
37847;SDS011;23688;33.130;-117.188;2024-01-10T13:30:55;4.85;;;2.33;;
37847;SDS011;23688;33.130;-117.188;2024-01-10T13:33:21;5.68;;;2.55;;
37847;SDS011;23688;33.130;-117.188;2024-01-10T13:35:48;5.30;;;2.88;;
37847;SDS011;23688;33.130;-117.188;2024-01-10T13:38:15;4.68;;;2.20;;
37847;SDS011;23688;33.130;-117.188;2024-01-10T13:40:43;3.55;;;1.88;;
37847;SDS011;23688;33.130;-117.188;2024-01-10T13:43:10;6.88;;;2.35;;
37847;SDS011;23688;33.130;-117.188;2024-01-10T13:45:36;2.60;;;1.70;;
37847;SDS011;23688;33.130;-117.188;2024-01-10T13:48:04;4.57;;;2.30;;
37847;SDS011;23688;33.130;-117.188;2024-01-10T13:50:30;5.45;;;2.45;;
37847;SDS011;23688;33.130;-117.188;2024-01-10T13:52:59;3.72;;;2.08;;
37847;SDS011;23688;33.130;-117.188;2024-01-10T13:55:26;8.45;;;2.03;;
37847;SDS011;23688;33.130;-117.188;2024-01-10T13:57:52;6.30;;;1.88;;
37847;SDS011;23688;33.130;-117.188;2024-01-10T14:00:19;6.85;;;2.00;;
37847;SDS011;23688;33.130;-117.188;2024-01-10T14:02:46;3.70;;;2.00;;
37847;SDS011;23688;33.130;-117.188;2024-01-10T14:05:12;6.88;;;1.75;;
37847;SDS011;23688;33.130;-117.188;2024-01-10T14:07:38;3.22;;;2.10;;
37847;SDS011;23688;33.130;-117.188;2024-01-10T14:10:05;6.88;;;2.20;;
37847;SDS011;23688;33.130;-117.188;2024-01-10T14:12:32;11.57;;;2.22;;
37847;SDS011;23688;33.130;-117.188;2024-01-10T14:14:58;7.18;;;3.03;;
37847;SDS011;23688;33.130;-117.188;2024-01-10T14:17:25;8.13;;;2.13;;
37847;SDS011;23688;33.130;-117.188;2024-01-10T14:19:51;5.78;;;2.20;;
37847;SDS011;23688;33.130;-117.188;2024-01-10T14:22:18;5.22;;;2.35;;
37847;SDS011;23688;33.130;-117.188;2024-01-10T14:24:45;7.57;;;2.80;;
37847;SDS011;23688;33.130;-117.188;2024-01-10T14:27:14;9.00;;;2.90;;